Skip Navigation LinksHome page > Weather > Current weather Skip Navigation Links

Current Weather

John Wayne Airport-Orange County, Santa Ana, Calif.

For information only: do not use for flight planning or navigation.
Latest weather
Observation time Saturday, September 19, 2020 11:53 PM PDT
Local time Sunday, September 20, 2020 12:54 AM PDT
Flight conditions Visual Meteorological Conditions
Winds
Wind direction South-Southwest (200°)
Wind speed 7 mph
Visibility 9 mi.
Sky condition
Ceiling unlimited
Sky clear
Temperature 67°F
Dewpoint 63°F
Altimeter 29.84 in.Hg
Derived measurements
Relative humidity 87%
Density altitude 933 ft.
Sea-level pressure 29.84 in.Hg
Remarks
Fully automated report.
Automated weather observing station with precipitation discriminator.
METAR KSNA 200653Z AUTO 20006KT 9SM CLR 19/17 A2984 RMK AO2 SLP104 T01940172

Settings

Location code

InnerDrive.Weather 4.0.6770.0 Release CLR 4.0.30319.42000
Copyright ©2018 Inner Drive Technology. All rights reserved. Portions Copyright ©1986-2018 David Braverman.

Find weather

Site navigation


Skip Navigation Links

Place info

Page info

PayPal - The safer, easier way to pay online!

Return home.

Copyright ©2020 Inner Drive Technology. Purveyors of fine, hand-crafted computer software. Page printed 2020-09-20T07:54:57 UTC.